Portada
METAR-TAF:

METAR-TAF

Aeropuertos :

Albertus Airport

Freeport, Illinois, Estados Unidos

latitud: 42-14-47N, longitud: 089-34-56W, altitud: 262 m

Observación

El informe se hizo hace 34 minutos, a las 10:35 UTC
Viento 5 kt del noreste
Temperatura 2°C
Humedad 93%
Presión 1020 hPa
Visibilidad: 16.1 km
Cielo cubierto a una altura de 4700 ft

METAR: KFEP 311035Z AUTO 04005KT 10SM OVC047 02/01 A3011 RMK AO2 T00150010

Hora: 06:09 (11:09 UTC)


TAF: falta

Observaciones y pronósticos meteorológicos de más de 4000 aeropuertos (mensajes METAR y TAF).

Los puntos amarillos y rojos representan las estaciones disponibles.

Ponga el ratón en el punto deseado para ver el nombre de la estación.

Haga clic para ver las observaciones y los pronósticos meteorológicos.

Para cambiar el mapa : haga clic en los botones verdes con una cruz de color negro para hacer un zoom, en el botón verde con un guión para alejar o en las flechas verdes para mapas adyacentes.


METAR-TAF: